SAZB/BHI METAR and TAF weather

Enter ICAO airport designator
Station Type Date Time Source
SAZB METAR 2020/07/10 12:35 UTC NOAA

SAZB 101235Z 34017KT 9999 FEW010 OVC100 10/06 Q1001


Station Type Date Time Source
SAZB Decoded METAR 2020/07/10 12:35 UTC NOAA

Bahia Blanca Aerodrome, Argentina (SAZB) 38-44S 062-10W 83M
Jul 10, 2020 - 08:35 AM EDT / 2020.07.10 1235 UTC
Wind: from the NNW (340 degrees) at 20 MPH (17 KT):0
Visibility: greater than 7 mile(s):0
Sky conditions: overcast
Temperature: 50 F (10 C)
Dew Point: 42 F (6 C)
Relative Humidity: 76%
Pressure (altimeter): 29.56 in. Hg (1001 hPa)
ob: SAZB 101235Z 34017KT 9999 FEW010 OVC100 10/06 Q1001
cycle: 12

Station Type Date Time Source
SAZB TAF 2020/06/26 12:09 UTC NOAA

TAF SAZB 261100Z 2612/2712 27005KT CAVOK TX08/2618Z TN03/2710Z
BECMG 2700/2702 9999 SCT040
BECMG 2702/2704 7000 RA SCT010 OVC030

Example: see airport list